Terminal Aerodrome Forecast
Issued by NWS

Home | Current Version | Previous Version | Text Only | Print | Product List | Glossary On
Versions: 1 2 3 4 5 6 7 8 9 10 11 12 13 14
000
FTUS46 KHNX 291728
TAFFAT
TAF
KFAT 291728Z 2918/3018 00000KT 1/4SM FG VV002
     FM291900 VRB03KT 1/2SM FG BKN005
     FM292000 VRB03KT 2SM BR SCT005 BKN150
     FM292100 29005KT 4SM HZ BKN150
     FM300600 VRB03KT 2SM BR BKN150
     FM301000 VRB03KT 1/2SM FG VV002=

USA.gov is the U.S. government's official web portal to all federal, state and local government web resources and services.